createdAt,value
2019-04-16T00:00:28.382Z,7.90
2019-04-16T00:02:59.034Z,7.90
2019-04-16T00:05:40.533Z,7.90
2019-04-16T00:08:32.246Z,7.90
2019-04-16T00:11:11.384Z,7.90
2019-04-16T00:14:03.392Z,7.90
2019-04-16T00:16:33.650Z,7.90
2019-04-16T00:19:05.602Z,7.80
2019-04-16T00:21:59.023Z,7.90
2019-04-16T00:24:34.049Z,7.80
2019-04-16T00:27:03.782Z,7.80
2019-04-16T00:29:33.806Z,7.80
2019-04-16T00:32:08.293Z,7.80
2019-04-16T00:34:36.081Z,7.80
2019-04-16T00:37:05.681Z,7.80
2019-04-16T00:39:35.115Z,7.80
2019-04-16T00:42:05.291Z,7.80
2019-04-16T00:44:34.701Z,7.80
2019-04-16T00:47:04.139Z,7.80
2019-04-16T00:49:33.549Z,7.80
2019-04-16T00:52:05.665Z,7.80
2019-04-16T00:54:34.243Z,7.80
2019-04-16T00:57:03.899Z,7.80
2019-04-16T00:59:33.462Z,7.70
2019-04-16T01:02:03.001Z,7.70
2019-04-16T01:04:32.523Z,7.70
2019-04-16T01:07:01.949Z,7.70
2019-04-16T01:09:31.381Z,7.60
2019-04-16T01:12:01.179Z,7.60
2019-04-16T01:14:30.628Z,7.60
2019-04-16T01:17:03.876Z,7.60
2019-04-16T01:19:31.364Z,7.60
2019-04-16T01:22:00.808Z,7.60
2019-04-16T01:24:30.282Z,7.60
2019-04-16T01:26:59.898Z,7.60
2019-04-16T01:29:33.642Z,7.60
2019-04-16T01:32:18.427Z,7.60
2019-04-16T01:35:09.841Z,7.60
2019-04-16T01:38:07.571Z,7.60
2019-04-16T01:40:50.109Z,7.60
2019-04-16T01:43:19.484Z,7.60
2019-04-16T01:45:48.923Z,7.60
2019-04-16T01:48:18.349Z,7.60
2019-04-16T01:50:47.812Z,7.60
2019-04-16T01:53:18.380Z,7.60
2019-04-16T01:55:48.887Z,7.70
2019-04-16T01:58:18.281Z,7.60
2019-04-16T02:00:47.719Z,7.60
2019-04-16T02:03:17.808Z,7.60
2019-04-16T02:05:47.911Z,7.60
2019-04-16T02:08:17.480Z,7.60
2019-04-16T02:10:47.074Z,7.60
2019-04-16T02:13:16.474Z,7.60
2019-04-16T02:15:45.971Z,7.60
2019-04-16T02:18:15.420Z,7.60
2019-04-16T02:20:44.884Z,7.60
2019-04-16T02:23:16.722Z,7.60
2019-04-16T02:25:45.602Z,7.60
2019-04-16T02:28:15.030Z,7.60
2019-04-16T02:30:44.579Z,7.60
2019-04-16T02:33:14.058Z,7.60
2019-04-16T02:35:43.514Z,7.60
2019-04-16T02:38:14.205Z,7.70
2019-04-16T02:40:51.454Z,7.60
2019-04-16T02:43:14.942Z,7.60
2019-04-16T02:45:44.375Z,7.60
2019-04-16T02:48:16.619Z,7.60
2019-04-16T02:50:47.874Z,7.60
2019-04-16T02:53:58.499Z,7.60
2019-04-16T02:56:56.712Z,7.60
2019-04-16T02:59:32.445Z,7.60
2019-04-16T03:02:22.684Z,7.60
2019-04-16T03:05:03.949Z,7.60
2019-04-16T03:07:33.498Z,7.60
2019-04-16T03:10:04.840Z,7.50
2019-04-16T03:12:34.606Z,7.60
2019-04-16T03:15:04.366Z,7.60
2019-04-16T03:17:39.515Z,7.60
2019-04-16T03:20:09.682Z,7.60
2019-04-16T03:22:39.236Z,7.60
2019-04-16T03:25:12.358Z,7.60
2019-04-16T03:27:40.511Z,7.60
2019-04-16T03:30:09.925Z,7.60
2019-04-16T03:32:51.978Z,7.60
2019-04-16T03:35:25.548Z,7.60
2019-04-16T03:37:52.752Z,7.60
2019-04-16T03:40:25.485Z,7.60
2019-04-16T03:42:53.284Z,7.60
2019-04-16T03:45:22.844Z,7.60
2019-04-16T03:47:52.481Z,7.70
2019-04-16T03:50:21.929Z,7.60
2019-04-16T03:52:51.765Z,7.60
2019-04-16T03:55:25.040Z,7.60
2019-04-16T03:57:52.556Z,7.60
2019-04-16T04:00:22.004Z,7.60
2019-04-16T04:02:54.261Z,7.60
2019-04-16T04:05:22.712Z,7.60
2019-04-16T04:07:55.128Z,7.60
2019-04-16T04:10:30.725Z,7.60
2019-04-16T04:12:54.638Z,7.60
2019-04-16T04:15:26.288Z,7.70
2019-04-16T04:17:55.875Z,7.60
2019-04-16T04:20:25.484Z,7.60
2019-04-16T04:22:57.204Z,7.60
2019-04-16T04:25:26.215Z,7.60
2019-04-16T04:27:55.665Z,7.60
2019-04-16T04:30:28.902Z,7.60
2019-04-16T04:32:58.020Z,7.60
2019-04-16T04:35:27.418Z,7.60
2019-04-16T04:37:56.852Z,7.60
2019-04-16T04:40:26.267Z,7.60
2019-04-16T04:42:57.765Z,7.60
2019-04-16T04:45:26.910Z,7.60
2019-04-16T04:47:56.671Z,7.60
2019-04-16T04:50:26.232Z,7.60
2019-04-16T04:52:55.812Z,7.70
2019-04-16T04:55:26.823Z,7.70
2019-04-16T04:57:56.384Z,7.70
2019-04-16T05:00:25.836Z,7.70
2019-04-16T05:02:55.272Z,7.70
2019-04-16T05:05:48.013Z,7.70
2019-04-16T05:08:17.438Z,7.70
2019-04-16T05:10:58.426Z,7.70
2019-04-16T05:13:18.304Z,7.70
2019-04-16T05:15:47.874Z,7.70
2019-04-16T05:18:17.337Z,7.70
2019-04-16T05:20:47.694Z,7.70
2019-04-16T05:23:17.962Z,7.70
2019-04-16T05:25:47.588Z,7.70
2019-04-16T05:28:17.028Z,7.70
2019-04-16T05:30:51.739Z,7.70
2019-04-16T05:33:18.248Z,7.70
2019-04-16T05:35:47.914Z,7.70
2019-04-16T05:38:17.341Z,7.70
2019-04-16T05:40:46.800Z,7.70
2019-04-16T05:43:16.235Z,7.70
2019-04-16T05:45:46.155Z,7.70
2019-04-16T05:48:18.530Z,7.70
2019-04-16T05:50:48.081Z,7.70
2019-04-16T05:53:17.564Z,7.70
2019-04-16T05:55:58.555Z,7.70
2019-04-16T05:58:30.754Z,7.70
2019-04-16T06:01:14.159Z,7.70
2019-04-16T06:03:43.918Z,7.60
2019-04-16T06:06:13.540Z,7.60
2019-04-16T06:08:43.056Z,7.60
2019-04-16T06:11:26.636Z,7.60
2019-04-16T06:13:58.827Z,7.60
2019-04-16T06:17:05.642Z,7.60
2019-04-16T06:19:53.912Z,7.70
2019-04-16T06:22:54.467Z,7.70
2019-04-16T06:25:41.448Z,7.70
2019-04-16T06:28:42.651Z,7.70
2019-04-16T06:31:39.402Z,7.70
2019-04-16T06:34:26.102Z,7.70
2019-04-16T06:37:00.509Z,7.70
2019-04-16T06:40:00.577Z,7.70
2019-04-16T06:42:54.212Z,7.70
2019-04-16T06:45:54.264Z,7.80
2019-04-16T06:48:29.101Z,7.70
2019-04-16T06:51:17.532Z,7.80
2019-04-16T06:54:04.761Z,7.80
2019-04-16T06:56:51.992Z,7.80
2019-04-16T06:59:49.409Z,7.80
2019-04-16T07:02:37.439Z,7.80
2019-04-16T07:05:24.788Z,7.80
2019-04-16T07:08:19.841Z,7.90
2019-04-16T07:10:57.644Z,7.90
2019-04-16T07:13:27.230Z,7.90
2019-04-16T07:15:57.673Z,7.90
2019-04-16T07:18:27.405Z,7.90
2019-04-16T07:20:56.874Z,7.90
2019-04-16T07:23:26.437Z,7.90
2019-04-16T07:25:56.207Z,7.90
2019-04-16T07:28:42.642Z,7.90
2019-04-16T07:31:32.717Z,7.90
2019-04-16T07:34:13.934Z,8.00
2019-04-16T07:37:00.425Z,8.00
2019-04-16T07:39:51.336Z,8.00
2019-04-16T07:42:34.613Z,8.00
2019-04-16T07:45:28.934Z,8.00
2019-04-16T07:48:17.330Z,8.00
2019-04-16T07:51:04.810Z,8.00
2019-04-16T07:54:06.112Z,8.10
2019-04-16T07:56:36.471Z,8.10
2019-04-16T07:59:05.916Z,8.10
2019-04-16T08:01:35.467Z,8.10
2019-04-16T08:04:04.922Z,8.10
2019-04-16T08:06:34.497Z,8.10
2019-04-16T08:09:05.610Z,8.10
2019-04-16T08:11:35.156Z,8.10
2019-04-16T08:14:08.640Z,8.10
2019-04-16T08:16:46.669Z,8.20
2019-04-16T08:19:06.812Z,8.20
2019-04-16T08:21:36.332Z,8.20
2019-04-16T08:24:07.943Z,8.20
2019-04-16T08:26:37.511Z,8.20
2019-04-16T08:29:07.259Z,8.20
2019-04-16T08:31:40.774Z,8.20
2019-04-16T08:34:11.307Z,8.20
2019-04-16T08:36:40.818Z,8.10
2019-04-16T08:39:12.014Z,8.20
2019-04-16T08:41:41.441Z,8.20
2019-04-16T08:44:10.970Z,8.20
2019-04-16T08:46:41.199Z,8.20
2019-04-16T08:49:10.747Z,8.20
2019-04-16T08:51:40.214Z,8.20
2019-04-16T08:54:09.712Z,8.20
2019-04-16T08:56:39.479Z,8.30
2019-04-16T08:59:10.047Z,8.30
2019-04-16T09:01:40.026Z,8.30
2019-04-16T09:04:09.467Z,8.30
2019-04-16T09:06:38.927Z,8.30
2019-04-16T09:09:26.045Z,8.40
2019-04-16T09:11:58.547Z,8.40
2019-04-16T09:14:30.128Z,8.40
2019-04-16T09:17:15.021Z,8.40
2019-04-16T09:19:48.933Z,8.30
2019-04-16T09:22:18.480Z,8.40
2019-04-16T09:24:58.605Z,8.40
2019-04-16T09:27:39.343Z,8.40
2019-04-16T09:30:26.382Z,8.40
2019-04-16T09:33:03.891Z,8.30
2019-04-16T09:35:49.422Z,8.30
2019-04-16T09:38:26.571Z,8.30
2019-04-16T09:41:21.018Z,8.40
2019-04-16T09:43:53.789Z,8.40
2019-04-16T09:46:48.761Z,8.50
2019-04-16T09:48:55.912Z,8.50
2019-04-16T09:51:26.287Z,8.50
2019-04-16T09:53:55.891Z,8.50
2019-04-16T09:56:32.355Z,8.50
2019-04-16T09:59:10.759Z,8.50
2019-04-16T10:01:44.908Z,8.60
2019-04-16T10:04:16.661Z,8.60
2019-04-16T10:06:46.169Z,8.60
2019-04-16T10:09:19.746Z,8.70
2019-04-16T10:11:46.888Z,8.70
2019-04-16T10:14:16.500Z,8.70
2019-04-16T10:16:45.966Z,8.60
2019-04-16T10:19:15.426Z,8.60
2019-04-16T10:21:44.923Z,8.60
2019-04-16T10:24:36.207Z,8.70
2019-04-16T10:27:06.106Z,8.70
2019-04-16T10:29:35.569Z,8.80
2019-04-16T10:32:05.310Z,8.90
2019-04-16T10:34:36.267Z,8.90
2019-04-16T10:37:06.261Z,8.90
2019-04-16T10:39:53.421Z,8.80
2019-04-16T10:42:34.060Z,8.80
2019-04-16T10:45:25.285Z,8.90
2019-04-16T10:48:12.385Z,8.90
2019-04-16T10:51:00.788Z,8.90
2019-04-16T10:53:41.271Z,9.00
2019-04-16T10:56:27.903Z,9.00
2019-04-16T10:59:28.394Z,9.00
2019-04-16T11:02:16.705Z,9.00
2019-04-16T11:05:07.819Z,9.10
2019-04-16T11:07:37.317Z,9.20
2019-04-16T11:10:06.741Z,9.20
2019-04-16T11:12:36.193Z,9.30
2019-04-16T11:15:06.010Z,9.20
2019-04-16T11:17:35.455Z,9.20
2019-04-16T11:20:06.116Z,9.20
2019-04-16T11:22:35.703Z,9.30
2019-04-16T11:25:05.340Z,9.20
2019-04-16T11:27:34.802Z,9.10
2019-04-16T11:30:05.902Z,9.20
2019-04-16T11:32:39.085Z,9.20
2019-04-16T11:35:06.448Z,9.20
2019-04-16T11:37:36.333Z,9.20
2019-04-16T11:40:06.162Z,9.30
2019-04-16T11:42:35.652Z,9.40
2019-04-16T11:45:05.771Z,9.40
2019-04-16T11:47:36.234Z,9.30
2019-04-16T11:50:06.182Z,9.40
2019-04-16T11:52:35.625Z,9.30
2019-04-16T11:55:05.315Z,9.40
2019-04-16T11:57:34.762Z,9.40
2019-04-16T12:00:08.232Z,9.40
2019-04-16T12:02:49.712Z,9.50
2019-04-16T12:05:40.898Z,9.30
2019-04-16T12:08:38.257Z,9.30
2019-04-16T12:11:30.637Z,9.30
2019-04-16T12:14:09.582Z,9.40
2019-04-16T12:16:56.459Z,9.40
2019-04-16T12:19:44.978Z,9.30
2019-04-16T12:22:24.974Z,9.30
2019-04-16T12:25:12.229Z,9.30
2019-04-16T12:27:54.600Z,9.30
2019-04-16T12:30:48.717Z,9.20
2019-04-16T12:33:29.761Z,9.30
2019-04-16T12:36:14.630Z,9.30
2019-04-16T12:39:03.527Z,9.30
2019-04-16T12:41:50.927Z,9.20
2019-04-16T12:44:51.384Z,9.20
2019-04-16T12:47:42.737Z,9.30
2019-04-16T12:50:29.066Z,9.20
2019-04-16T12:53:06.085Z,9.20
2019-04-16T12:55:53.090Z,9.10
2019-04-16T12:58:59.600Z,9.20
2019-04-16T13:01:43.036Z,9.10
2019-04-16T13:04:19.089Z,9.20
2019-04-16T13:07:01.254Z,9.30
2019-04-16T13:09:48.454Z,9.40
2019-04-16T13:12:26.621Z,9.40
2019-04-16T13:15:20.110Z,9.50
2019-04-16T13:18:08.182Z,9.60
2019-04-16T13:21:08.535Z,9.60
2019-04-16T13:24:00.089Z,9.80
2019-04-16T13:26:46.093Z,9.80
2019-04-16T13:29:18.145Z,9.80
2019-04-16T13:31:47.645Z,9.60
2019-04-16T13:34:18.625Z,9.70
2019-04-16T13:36:51.484Z,9.70
2019-04-16T13:39:47.415Z,9.70
2019-04-16T13:42:19.915Z,9.90
2019-04-16T13:44:53.253Z,9.90
2019-04-16T13:47:22.835Z,10.00
2019-04-16T13:50:03.685Z,10.10
2019-04-16T13:52:31.482Z,10.10
2019-04-16T13:55:19.932Z,10.10
2019-04-16T13:58:11.312Z,10.10
2019-04-16T14:00:44.865Z,10.10
2019-04-16T14:03:16.568Z,10.00
2019-04-16T14:05:46.223Z,9.90
2019-04-16T14:08:15.728Z,10.00
2019-04-16T14:10:45.197Z,10.10
2019-04-16T14:13:14.766Z,10.20
2019-04-16T14:15:44.918Z,10.10
2019-04-16T14:18:14.989Z,10.10
2019-04-16T14:20:44.523Z,10.10
2019-04-16T14:23:14.071Z,10.10
2019-04-16T14:25:43.604Z,10.10
2019-04-16T14:28:13.051Z,10.30
2019-04-16T14:30:46.336Z,10.30
2019-04-16T14:33:21.710Z,10.30
2019-04-16T14:35:51.210Z,10.30
2019-04-16T14:38:27.119Z,10.20
2019-04-16T14:40:56.631Z,10.30
2019-04-16T14:43:32.489Z,10.30
2019-04-16T14:46:01.992Z,10.30
2019-04-16T14:48:31.420Z,10.30
2019-04-16T14:51:00.927Z,10.20
2019-04-16T14:53:39.807Z,10.20
2019-04-16T14:56:17.516Z,10.20
2019-04-16T14:59:02.565Z,10.10
2019-04-16T15:01:57.031Z,10.20
2019-04-16T15:04:34.486Z,10.20
2019-04-16T15:07:22.886Z,10.20
2019-04-16T15:10:14.281Z,10.10
2019-04-16T15:13:05.709Z,10.10
2019-04-16T15:15:45.942Z,10.20
2019-04-16T15:18:40.329Z,10.20
2019-04-16T15:21:27.314Z,10.20
2019-04-16T15:24:09.638Z,10.10
2019-04-16T15:27:06.884Z,10.10
2019-04-16T15:29:57.808Z,10.10
2019-04-16T15:32:42.245Z,10.10
2019-04-16T15:35:15.093Z,10.10
2019-04-16T15:37:57.868Z,10.20
2019-04-16T15:40:33.324Z,10.10
2019-04-16T15:43:27.819Z,10.10
2019-04-16T15:46:26.014Z,10.10
2019-04-16T15:49:19.481Z,10.00
2019-04-16T15:52:09.920Z,9.90
2019-04-16T15:54:55.340Z,10.00
2019-04-16T15:57:40.218Z,10.00
2019-04-16T16:00:32.019Z,10.00
2019-04-16T16:03:23.420Z,10.00
2019-04-16T16:05:57.352Z,10.00
2019-04-16T16:08:40.636Z,10.00
2019-04-16T16:11:17.397Z,9.90
2019-04-16T16:13:47.070Z,9.80
2019-04-16T16:16:18.113Z,9.70
2019-04-16T16:18:47.741Z,9.70
2019-04-16T16:21:17.200Z,9.60
2019-04-16T16:23:46.649Z,9.60
2019-04-16T16:26:16.366Z,9.60
2019-04-16T16:28:45.864Z,9.70
2019-04-16T16:31:15.376Z,9.60
2019-04-16T16:33:45.011Z,9.70
2019-04-16T16:36:14.484Z,9.70
2019-04-16T16:38:48.275Z,9.80
2019-04-16T16:41:15.200Z,9.80
2019-04-16T16:43:45.145Z,9.80
2019-04-16T16:46:39.529Z,9.80
2019-04-16T16:49:09.129Z,9.90
2019-04-16T16:51:41.122Z,9.80
2019-04-16T16:54:17.038Z,9.90
2019-04-16T16:57:07.407Z,9.90
2019-04-16T16:59:53.316Z,10.00
2019-04-16T17:02:37.281Z,10.00
2019-04-16T17:05:09.468Z,10.00
2019-04-16T17:07:39.018Z,10.00
2019-04-16T17:10:08.450Z,9.90
2019-04-16T17:12:37.978Z,9.90
2019-04-16T17:15:09.070Z,9.70
2019-04-16T17:17:38.884Z,9.70
2019-04-16T17:20:08.341Z,9.70
2019-04-16T17:22:40.789Z,9.80
2019-04-16T17:25:11.973Z,10.00
2019-04-16T17:27:51.104Z,10.00
2019-04-16T17:30:11.458Z,10.00
2019-04-16T17:32:40.956Z,10.00
2019-04-16T17:35:14.373Z,10.00
2019-04-16T17:37:41.619Z,9.90
2019-04-16T17:40:26.343Z,9.80
2019-04-16T17:42:59.540Z,9.70
2019-04-16T17:45:52.363Z,9.70
2019-04-16T17:48:37.114Z,9.70
2019-04-16T17:51:20.205Z,9.60
2019-04-16T17:53:55.894Z,9.60
2019-04-16T17:56:46.256Z,9.60
2019-04-16T17:59:19.805Z,9.60
2019-04-16T18:02:17.235Z,9.50
2019-04-16T18:05:04.378Z,9.50
2019-04-16T18:07:51.395Z,9.50
2019-04-16T18:10:45.832Z,9.40
2019-04-16T18:13:20.468Z,9.40
2019-04-16T18:16:01.166Z,9.40
2019-04-16T18:18:41.251Z,9.40
2019-04-16T18:21:38.812Z,9.30
2019-04-16T18:24:20.814Z,9.30
2019-04-16T18:27:18.336Z,9.30
2019-04-16T18:29:57.067Z,9.30
2019-04-16T18:32:33.886Z,9.30
2019-04-16T18:35:16.419Z,9.30
2019-04-16T18:37:55.083Z,9.30
2019-04-16T18:40:43.446Z,9.30
2019-04-16T18:43:32.144Z,9.20
2019-04-16T18:46:33.176Z,9.20
2019-04-16T18:49:09.415Z,9.10
2019-04-16T18:51:38.837Z,9.10
2019-04-16T18:54:08.326Z,9.10
2019-04-16T18:56:37.762Z,9.10
2019-04-16T18:59:07.233Z,9.00
2019-04-16T19:01:37.404Z,9.00
2019-04-16T19:04:06.857Z,9.10
2019-04-16T19:06:36.323Z,9.00
2019-04-16T19:09:07.384Z,9.00
2019-04-16T19:11:36.776Z,8.90
2019-04-16T19:14:06.295Z,8.90
2019-04-16T19:16:35.767Z,8.90
2019-04-16T19:19:05.225Z,8.90
2019-04-16T19:21:34.714Z,8.80
2019-04-16T19:24:04.180Z,8.70
2019-04-16T19:26:33.634Z,8.70
2019-04-16T19:29:05.527Z,8.70
2019-04-16T19:31:34.276Z,8.60
2019-04-16T19:34:09.307Z,8.60
2019-04-16T19:36:34.986Z,8.70
2019-04-16T19:39:06.735Z,8.70
2019-04-16T19:41:41.024Z,8.60
2019-04-16T19:44:08.551Z,8.60
2019-04-16T19:46:38.259Z,8.60
2019-04-16T19:49:07.934Z,8.60
2019-04-16T19:51:37.950Z,8.60
2019-04-16T19:54:09.073Z,8.60
2019-04-16T19:56:38.500Z,8.50
2019-04-16T19:59:08.162Z,8.50
2019-04-16T20:01:37.886Z,8.50
2019-04-16T20:04:10.742Z,8.50
2019-04-16T20:06:38.668Z,8.50
2019-04-16T20:09:08.215Z,8.50
2019-04-16T20:11:37.664Z,8.50
2019-04-16T20:14:07.171Z,8.50
2019-04-16T20:16:36.718Z,8.40
2019-04-16T20:19:06.360Z,8.40
2019-04-16T20:21:37.925Z,8.30
2019-04-16T20:24:07.181Z,8.40
2019-04-16T20:26:36.687Z,8.30
2019-04-16T20:29:06.373Z,8.30
2019-04-16T20:31:35.833Z,8.20
2019-04-16T20:34:05.306Z,8.20
2019-04-16T20:36:34.959Z,8.10
2019-04-16T20:39:07.037Z,8.10
2019-04-16T20:41:36.562Z,8.10
2019-04-16T20:44:08.876Z,8.10
2019-04-16T20:46:37.341Z,8.10
2019-04-16T20:49:10.420Z,8.10
2019-04-16T20:51:39.188Z,8.00
2019-04-16T20:54:12.798Z,8.00
2019-04-16T20:56:40.628Z,8.00
2019-04-16T20:59:10.350Z,7.90
2019-04-16T21:01:40.321Z,7.90
2019-04-16T21:04:10.019Z,7.80
2019-04-16T21:06:41.884Z,7.80
2019-04-16T21:09:10.607Z,7.80
2019-04-16T21:11:41.049Z,7.80
2019-04-16T21:14:11.365Z,7.80
2019-04-16T21:16:40.959Z,7.80
2019-04-16T21:19:22.093Z,7.80
2019-04-16T21:21:41.598Z,7.70
2019-04-16T21:24:13.544Z,7.70
2019-04-16T21:26:42.226Z,7.70
2019-04-16T21:29:25.528Z,7.70
2019-04-16T21:31:58.728Z,7.70
2019-04-16T21:34:34.496Z,7.60
2019-04-16T21:37:41.031Z,7.60
2019-04-16T21:40:10.624Z,7.60
2019-04-16T21:42:40.112Z,7.60
2019-04-16T21:45:09.583Z,7.60
2019-04-16T21:47:39.214Z,7.60
2019-04-16T21:50:17.590Z,7.60
2019-04-16T21:52:47.473Z,7.60
2019-04-16T21:55:17.425Z,7.60
2019-04-16T21:57:47.127Z,7.50
2019-04-16T22:00:34.730Z,7.50
2019-04-16T22:03:09.444Z,7.50
2019-04-16T22:05:37.317Z,7.50
2019-04-16T22:08:06.905Z,7.50
2019-04-16T22:10:36.418Z,7.50
2019-04-16T22:13:06.131Z,7.50
2019-04-16T22:15:35.716Z,7.40
2019-04-16T22:18:08.745Z,7.40
2019-04-16T22:20:36.689Z,7.30
2019-04-16T22:23:06.269Z,7.40
2019-04-16T22:25:35.668Z,7.40
2019-04-16T22:28:05.303Z,7.30
2019-04-16T22:30:34.745Z,7.30
2019-04-16T22:33:06.397Z,7.30
2019-04-16T22:35:35.870Z,7.30
2019-04-16T22:38:05.314Z,7.20
2019-04-16T22:41:00.196Z,7.20
2019-04-16T22:43:47.282Z,7.20
2019-04-16T22:46:23.497Z,7.10
2019-04-16T22:48:56.998Z,7.10
2019-04-16T22:51:26.650Z,7.10
2019-04-16T22:53:56.237Z,7.00
2019-04-16T22:56:35.998Z,6.90
2019-04-16T22:59:06.562Z,6.90
2019-04-16T23:01:37.812Z,6.80
2019-04-16T23:04:07.336Z,6.80
2019-04-16T23:06:38.692Z,6.70
2019-04-16T23:09:09.380Z,6.70
2019-04-16T23:11:39.234Z,6.60
2019-04-16T23:14:08.742Z,6.60
2019-04-16T23:16:41.876Z,6.60
2019-04-16T23:19:09.622Z,6.50
2019-04-16T23:21:42.308Z,6.50
2019-04-16T23:24:10.114Z,6.40
2019-04-16T23:26:39.507Z,6.40
2019-04-16T23:29:09.036Z,6.30
2019-04-16T23:31:40.072Z,6.30
2019-04-16T23:34:09.744Z,6.30
2019-04-16T23:36:39.247Z,6.30
2019-04-16T23:39:08.741Z,6.30
2019-04-16T23:41:38.183Z,6.30
2019-04-16T23:44:25.766Z,6.20
2019-04-16T23:47:18.086Z,6.20
2019-04-16T23:50:10.084Z,6.10
2019-04-16T23:52:44.501Z,6.10
2019-04-16T23:55:51.316Z,6.00
2019-04-16T23:58:37.567Z,6.00
